createdAt,value
2023-11-30T00:01:16.644Z,99330.69
2023-11-30T00:03:44.315Z,99335.13
2023-11-30T00:06:11.877Z,99328.13
2023-11-30T00:08:38.853Z,99342.63
2023-11-30T00:11:08.903Z,99344.78
2023-11-30T00:13:35.970Z,99346.38
2023-11-30T00:16:02.965Z,99349.47
2023-11-30T00:18:30.639Z,99347.72
2023-11-30T00:20:57.704Z,99349.00
2023-11-30T00:23:24.703Z,99358.03
2023-11-30T00:25:51.687Z,99355.22
2023-11-30T00:28:18.757Z,99363.34
2023-11-30T00:30:46.009Z,99375.00
2023-11-30T00:33:13.086Z,99383.06
2023-11-30T00:35:40.067Z,99381.25
2023-11-30T00:38:07.071Z,99386.19
2023-11-30T00:40:34.153Z,99392.16
2023-11-30T00:43:01.239Z,99412.56
2023-11-30T00:45:28.254Z,99409.50
2023-11-30T00:47:55.373Z,99414.44
2023-11-30T00:50:22.565Z,99410.81
2023-11-30T00:52:49.755Z,99423.28
2023-11-30T00:55:16.930Z,99418.88
2023-11-30T00:57:43.898Z,99421.28
2023-11-30T01:00:11.873Z,99418.91
2023-11-30T01:02:41.503Z,99418.38
2023-11-30T01:05:09.519Z,99422.81
2023-11-30T01:07:39.718Z,99428.06
2023-11-30T01:10:07.929Z,99426.72
2023-11-30T01:12:35.012Z,99433.97
2023-11-30T01:15:02.408Z,99443.06
2023-11-30T01:17:29.596Z,99446.44
2023-11-30T01:19:56.664Z,99451.63
2023-11-30T01:22:23.710Z,99452.41
2023-11-30T01:24:50.808Z,99454.22
2023-11-30T01:27:17.940Z,99462.22
2023-11-30T01:29:45.186Z,99459.84
2023-11-30T01:32:12.231Z,99456.03
2023-11-30T01:34:39.586Z,99462.53
2023-11-30T01:37:07.189Z,99463.59
2023-11-30T01:39:34.157Z,99463.59
2023-11-30T01:42:03.817Z,99465.13
2023-11-30T01:44:33.180Z,99478.09
2023-11-30T01:47:01.000Z,99474.47
2023-11-30T01:49:28.225Z,99474.75
2023-11-30T01:51:55.383Z,99483.28
2023-11-30T01:54:22.496Z,99481.25
2023-11-30T01:56:50.119Z,99476.56
2023-11-30T01:59:17.885Z,99470.09
2023-11-30T02:01:45.321Z,99473.44
2023-11-30T02:04:17.011Z,99483.84
2023-11-30T02:06:47.938Z,99486.94
2023-11-30T02:09:15.305Z,99488.50
2023-11-30T02:11:42.885Z,99485.41
2023-11-30T02:14:09.881Z,99493.69
2023-11-30T02:16:37.349Z,99490.56
2023-11-30T02:19:04.485Z,99497.56
2023-11-30T02:21:31.759Z,99486.41
2023-11-30T02:23:58.773Z,99499.88
2023-11-30T02:26:25.788Z,99502.19
2023-11-30T02:28:53.007Z,99509.16
2023-11-30T02:31:20.111Z,99509.66
2023-11-30T02:33:47.222Z,99517.94
2023-11-30T02:36:14.517Z,99514.81
2023-11-30T02:38:41.583Z,99519.03
2023-11-30T02:41:09.215Z,99515.13
2023-11-30T02:43:36.213Z,99523.91
2023-11-30T02:46:03.363Z,99526.50
2023-11-30T02:48:30.455Z,99530.66
2023-11-30T02:50:57.924Z,99532.41
2023-11-30T02:53:25.010Z,99529.56
2023-11-30T02:55:52.117Z,99522.59
2023-11-30T02:58:19.225Z,99519.22
2023-11-30T03:00:47.538Z,99512.72
2023-11-30T03:03:14.803Z,99519.91
2023-11-30T03:05:41.871Z,99527.16
2023-11-30T03:08:08.890Z,99529.75
2023-11-30T03:10:36.028Z,99524.06
2023-11-30T03:13:03.105Z,99527.13
2023-11-30T03:15:32.065Z,99534.63
2023-11-30T03:17:59.190Z,99532.50
2023-11-30T03:20:26.395Z,99541.56
2023-11-30T03:22:53.447Z,99541.56
2023-11-30T03:25:20.544Z,99547.31
2023-11-30T03:27:47.582Z,99551.38
2023-11-30T03:30:14.793Z,99557.34
2023-11-30T03:32:41.969Z,99557.06
2023-11-30T03:35:09.348Z,99564.53
2023-11-30T03:37:41.446Z,99554.34
2023-11-30T03:40:09.318Z,99560.28
2023-11-30T03:42:36.489Z,99566.84
2023-11-30T03:45:03.800Z,99554.22
2023-11-30T03:47:30.892Z,99559.94
2023-11-30T03:49:57.925Z,99565.91
2023-11-30T03:52:25.094Z,99567.47
2023-11-30T03:54:53.004Z,99566.94
2023-11-30T03:57:20.142Z,99580.66
2023-11-30T03:59:47.246Z,99577.03
2023-11-30T04:02:14.296Z,99585.06
2023-11-30T04:04:42.878Z,99587.66
2023-11-30T04:07:09.988Z,99588.97
2023-11-30T04:09:38.985Z,99588.41
2023-11-30T04:12:06.575Z,99596.19
2023-11-30T04:14:33.644Z,99603.91
2023-11-30T04:17:04.290Z,99619.66
2023-11-30T04:19:31.956Z,99614.53
2023-11-30T04:21:59.013Z,99623.88
2023-11-30T04:24:26.178Z,99629.38
2023-11-30T04:26:54.816Z,99625.19
2023-11-30T04:29:21.935Z,99628.25
2023-11-30T04:31:51.496Z,99641.94
2023-11-30T04:34:19.881Z,99640.03
2023-11-30T04:36:47.641Z,99634.44
2023-11-30T04:39:14.684Z,99633.41
2023-11-30T04:41:42.233Z,99645.81
2023-11-30T04:44:09.343Z,99646.34
2023-11-30T04:46:36.808Z,99652.28
2023-11-30T04:49:06.264Z,99662.59
2023-11-30T04:51:34.012Z,99645.47
2023-11-30T04:54:01.072Z,99667.97
2023-11-30T04:56:28.343Z,99654.50
2023-11-30T04:58:55.394Z,99659.91
2023-11-30T05:01:22.509Z,99673.69
2023-11-30T05:03:49.769Z,99682.53
2023-11-30T05:06:17.031Z,99677.53
2023-11-30T05:08:44.024Z,99680.13
2023-11-30T05:11:11.111Z,99676.13
2023-11-30T05:13:38.235Z,99674.78
2023-11-30T05:16:06.078Z,99689.56
2023-11-30T05:18:33.207Z,99695.69
2023-11-30T05:21:00.868Z,99696.00
2023-11-30T05:23:27.848Z,99706.78
2023-11-30T05:25:54.941Z,99704.44
2023-11-30T05:28:23.107Z,99700.81
2023-11-30T05:30:50.585Z,99700.66
2023-11-30T05:33:18.033Z,99703.59
2023-11-30T05:35:45.520Z,99711.16
2023-11-30T05:38:15.482Z,99716.69
2023-11-30T05:40:42.713Z,99721.50
2023-11-30T05:43:09.921Z,99718.75
2023-11-30T05:45:37.061Z,99730.31
2023-11-30T05:48:04.863Z,99735.13
2023-11-30T05:50:31.899Z,99727.63
2023-11-30T05:52:58.862Z,99731.25
2023-11-30T05:55:26.862Z,99737.38
2023-11-30T05:57:53.987Z,99733.53
2023-11-30T06:00:23.264Z,99733.34
2023-11-30T06:02:50.365Z,99734.50
2023-11-30T06:05:18.479Z,99732.19
2023-11-30T06:07:46.157Z,99739.19
2023-11-30T06:10:15.213Z,99749.03
2023-11-30T06:12:42.599Z,99745.47
2023-11-30T06:15:11.068Z,99750.50
2023-11-30T06:17:38.265Z,99760.50
2023-11-30T06:20:08.795Z,99756.63
2023-11-30T06:22:37.641Z,99745.09
2023-11-30T06:25:06.729Z,99734.56
2023-11-30T06:27:33.926Z,99740.84
2023-11-30T06:30:01.129Z,99751.81
2023-11-30T06:32:28.174Z,99769.59
2023-11-30T06:34:55.192Z,99767.00
2023-11-30T06:37:22.325Z,99751.75
2023-11-30T06:39:49.447Z,99747.94
2023-11-30T06:42:16.545Z,99751.38
2023-11-30T06:44:46.550Z,99760.94
2023-11-30T06:47:13.716Z,99774.47
2023-11-30T06:49:40.774Z,99778.94
2023-11-30T06:52:07.888Z,99778.00
2023-11-30T06:54:34.906Z,99774.66
2023-11-30T06:57:02.183Z,99782.22
2023-11-30T06:59:31.309Z,99780.38
2023-11-30T07:01:59.737Z,99782.22
2023-11-30T07:04:29.492Z,99782.22
2023-11-30T07:06:57.263Z,99790.78
2023-11-30T07:09:24.287Z,99800.94
2023-11-30T07:11:51.640Z,99805.88
2023-11-30T07:14:18.674Z,99808.75
2023-11-30T07:16:45.732Z,99812.91
2023-11-30T07:19:14.658Z,99820.22
2023-11-30T07:21:41.786Z,99835.75
2023-11-30T07:24:11.529Z,99827.09
2023-11-30T07:26:40.328Z,99818.50
2023-11-30T07:29:07.452Z,99827.03
2023-11-30T07:31:35.795Z,99844.13
2023-11-30T07:34:04.244Z,99848.97
2023-11-30T07:36:31.479Z,99836.25
2023-11-30T07:38:58.704Z,99845.41
2023-11-30T07:41:25.780Z,99859.84
2023-11-30T07:43:52.895Z,99854.22
2023-11-30T07:46:20.775Z,99850.31
2023-11-30T07:48:48.115Z,99850.16
2023-11-30T07:51:15.297Z,99845.59
2023-11-30T07:53:42.434Z,99858.47
2023-11-30T07:56:11.426Z,99861.44
2023-11-30T07:58:38.616Z,99864.16
2023-11-30T08:01:06.625Z,99870.94
2023-11-30T08:03:34.379Z,99878.66
2023-11-30T08:06:02.196Z,99872.91
2023-11-30T08:08:29.353Z,99884.59
2023-11-30T08:10:57.147Z,99882.25
2023-11-30T08:13:25.490Z,99881.91
2023-11-30T08:15:52.641Z,99882.47
2023-11-30T08:18:25.516Z,99878.00
2023-11-30T08:20:55.553Z,99880.47
2023-11-30T08:23:23.340Z,99888.75
2023-11-30T08:25:50.968Z,99889.84
2023-11-30T08:28:18.206Z,99889.06
2023-11-30T08:30:45.498Z,99878.09
2023-11-30T08:33:13.037Z,99879.38
2023-11-30T08:35:41.248Z,99866.63
2023-11-30T08:38:10.453Z,99867.25
2023-11-30T08:40:37.611Z,99861.75
2023-11-30T08:43:04.774Z,99869.78
2023-11-30T08:45:33.534Z,99859.41
2023-11-30T08:48:00.768Z,99853.56
2023-11-30T08:50:28.122Z,99862.72
2023-11-30T08:52:55.164Z,99862.28
2023-11-30T08:55:22.324Z,99862.66
2023-11-30T08:57:49.965Z,99863.22
2023-11-30T09:00:20.570Z,99860.91
2023-11-30T09:02:49.643Z,99862.38
2023-11-30T09:05:16.954Z,99854.06
2023-11-30T09:07:44.067Z,99853.88
2023-11-30T09:10:12.120Z,99851.94
2023-11-30T09:12:39.440Z,99852.00
2023-11-30T09:15:10.921Z,99830.78
2023-11-30T09:17:38.099Z,99826.88
2023-11-30T09:20:09.322Z,99818.28
2023-11-30T09:22:37.072Z,99809.81
2023-11-30T09:25:05.015Z,99807.59
2023-11-30T09:27:37.310Z,99799.34
2023-11-30T09:30:14.792Z,99792.66
2023-11-30T09:32:45.156Z,99789.47
2023-11-30T09:35:13.043Z,99789.16
2023-11-30T09:37:40.478Z,99780.38
2023-11-30T09:40:14.512Z,99782.88
2023-11-30T09:42:42.120Z,99784.66
2023-11-30T09:45:10.408Z,99783.19
2023-11-30T09:47:38.134Z,99775.25
2023-11-30T09:50:07.261Z,99776.88
2023-11-30T09:52:36.085Z,99776.88
2023-11-30T09:55:12.679Z,99770.38
2023-11-30T09:57:42.232Z,99757.31
2023-11-30T10:00:12.881Z,99759.56
2023-11-30T10:02:40.143Z,99757.91
2023-11-30T10:05:10.692Z,99758.06
2023-11-30T10:07:39.675Z,99755.56
2023-11-30T10:10:10.289Z,99756.31
2023-11-30T10:12:37.475Z,99766.91
2023-11-30T10:15:06.210Z,99780.25
2023-11-30T10:17:33.549Z,99785.94
2023-11-30T10:20:00.866Z,99782.06
2023-11-30T10:22:28.074Z,99785.28
2023-11-30T10:24:55.128Z,99778.31
2023-11-30T10:27:25.579Z,99769.94
2023-11-30T10:30:01.562Z,99782.09
2023-11-30T10:32:28.776Z,99785.03
2023-11-30T10:35:01.153Z,99767.91
2023-11-30T10:37:34.410Z,99754.03
2023-11-30T10:40:09.721Z,99751.50
2023-11-30T10:42:37.575Z,99746.28
2023-11-30T10:45:08.016Z,99738.25
2023-11-30T10:47:40.959Z,99740.06
2023-11-30T10:50:13.682Z,99738.06
2023-11-30T10:52:44.768Z,99743.03
2023-11-30T10:55:15.497Z,99743.81
2023-11-30T10:57:45.304Z,99736.16
2023-11-30T11:00:23.764Z,99751.25
2023-11-30T11:02:52.345Z,99741.94
2023-11-30T11:05:22.037Z,99748.63
2023-11-30T11:07:52.670Z,99745.88
2023-11-30T11:10:25.980Z,99744.06
2023-11-30T11:12:54.020Z,99728.50
2023-11-30T11:15:31.506Z,99726.84
2023-11-30T11:18:07.318Z,99726.41
2023-11-30T11:20:37.989Z,99727.44
2023-11-30T11:23:05.152Z,99724.06
2023-11-30T11:25:44.850Z,99706.31
2023-11-30T11:28:12.941Z,99707.19
2023-11-30T11:30:49.245Z,99707.97
2023-11-30T11:33:19.152Z,99697.59
2023-11-30T11:35:47.577Z,99696.88
2023-11-30T11:38:15.171Z,99695.66
2023-11-30T11:41:02.726Z,99688.44
2023-11-30T11:43:30.007Z,99681.94
2023-11-30T11:45:57.696Z,99680.00
2023-11-30T11:48:25.116Z,99671.81
2023-11-30T11:51:00.438Z,99666.28
2023-11-30T11:53:28.026Z,99664.03
2023-11-30T11:56:04.330Z,99660.69
2023-11-30T11:58:31.772Z,99667.09
2023-11-30T12:00:59.646Z,99667.25
2023-11-30T12:03:33.329Z,99675.50
2023-11-30T12:06:00.644Z,99669.69
2023-11-30T12:08:31.929Z,99677.34
2023-11-30T12:11:01.144Z,99662.06
2023-11-30T12:13:30.312Z,99653.34
2023-11-30T12:15:58.169Z,99634.25
2023-11-30T12:18:28.599Z,99625.00
2023-11-30T12:20:56.015Z,99620.63
2023-11-30T12:23:24.790Z,99609.75
2023-11-30T12:25:56.442Z,99618.09
2023-11-30T12:28:25.281Z,99611.31
2023-11-30T12:30:53.362Z,99616.72
2023-11-30T12:33:22.929Z,99607.44
2023-11-30T12:35:53.796Z,99593.44
2023-11-30T12:38:21.514Z,99595.03
2023-11-30T12:40:49.358Z,99603.72
2023-11-30T12:43:18.663Z,99605.06
2023-11-30T12:45:47.215Z,99597.75
2023-11-30T12:48:16.319Z,99594.06
2023-11-30T12:50:48.355Z,99591.84
2023-11-30T12:53:18.918Z,99599.94
2023-11-30T12:55:46.700Z,99577.84
2023-11-30T12:58:14.187Z,99576.38
2023-11-30T13:00:42.936Z,99580.44
2023-11-30T13:03:10.619Z,99582.19
2023-11-30T13:05:38.318Z,99591.66
2023-11-30T13:08:06.600Z,99595.41
2023-11-30T13:10:34.258Z,99582.06
2023-11-30T13:13:02.811Z,99585.94
2023-11-30T13:15:30.191Z,99578.44
2023-11-30T13:17:57.490Z,99572.88
2023-11-30T13:20:25.879Z,99566.22
2023-11-30T13:22:53.519Z,99568.03
2023-11-30T13:25:22.259Z,99562.28
2023-11-30T13:27:51.141Z,99577.19
2023-11-30T13:30:19.733Z,99591.09
2023-11-30T13:32:47.924Z,99590.25
2023-11-30T13:35:15.949Z,99597.91
2023-11-30T13:37:43.417Z,99607.22
2023-11-30T13:40:12.236Z,99605.47
2023-11-30T13:42:42.280Z,99602.22
2023-11-30T13:45:10.736Z,99608.38
2023-11-30T13:47:49.077Z,99602.06
2023-11-30T13:50:26.267Z,99597.94
2023-11-30T13:53:03.524Z,99592.91
2023-11-30T13:55:31.386Z,99588.72
2023-11-30T13:58:00.527Z,99598.38
2023-11-30T14:00:31.041Z,99595.63
2023-11-30T14:03:01.325Z,99612.31
2023-11-30T14:05:31.297Z,99608.72
2023-11-30T14:08:01.902Z,99615.97
2023-11-30T14:10:31.543Z,99610.72
2023-11-30T14:15:42.183Z,99611.84
2023-11-30T14:18:12.290Z,99604.91
2023-11-30T14:20:42.143Z,99599.50
2023-11-30T14:23:10.235Z,99608.66
2023-11-30T14:25:41.574Z,99610.72
2023-11-30T14:28:13.528Z,99619.66
2023-11-30T14:30:42.040Z,99603.91
2023-11-30T14:33:13.189Z,99605.44
2023-11-30T14:35:41.869Z,99599.72
2023-11-30T14:38:09.377Z,99597.50
2023-11-30T14:40:37.161Z,99593.94
2023-11-30T14:43:04.388Z,99597.47
2023-11-30T14:45:32.588Z,99596.66
2023-11-30T14:48:03.065Z,99590.91
2023-11-30T14:50:39.024Z,99593.03
2023-11-30T14:53:07.594Z,99599.59
2023-11-30T14:55:39.618Z,99601.59
2023-11-30T14:58:08.429Z,99610.16
2023-11-30T15:00:39.643Z,99615.31
2023-11-30T15:03:10.791Z,99615.25
2023-11-30T15:05:40.169Z,99619.22
2023-11-30T15:08:08.236Z,99619.13
2023-11-30T15:10:38.735Z,99611.31
2023-11-30T15:13:05.995Z,99609.19
2023-11-30T15:15:34.101Z,99616.13
2023-11-30T15:18:01.854Z,99623.00
2023-11-30T15:20:31.096Z,99622.06
2023-11-30T15:22:58.521Z,99618.09
2023-11-30T15:25:27.339Z,99633.00
2023-11-30T15:27:54.684Z,99642.72
2023-11-30T15:30:22.285Z,99633.31
2023-11-30T15:32:49.528Z,99623.47
2023-11-30T15:35:17.043Z,99623.28
2023-11-30T15:37:51.220Z,99636.16
2023-11-30T15:40:20.829Z,99623.16
2023-11-30T15:42:51.936Z,99634.69
2023-11-30T15:45:23.512Z,99617.75
2023-11-30T15:47:52.621Z,99616.72
2023-11-30T15:50:23.329Z,99622.78
2023-11-30T15:52:52.615Z,99636.06
2023-11-30T15:55:20.489Z,99644.84
2023-11-30T15:57:48.104Z,99634.72
2023-11-30T16:00:16.223Z,99637.94
2023-11-30T16:02:46.766Z,99634.81
2023-11-30T16:05:15.146Z,99634.69
2023-11-30T16:07:43.176Z,99633.22
2023-11-30T16:10:11.388Z,99617.06
2023-11-30T16:12:39.297Z,99621.78
2023-11-30T16:15:10.937Z,99622.09
2023-11-30T16:17:39.736Z,99625.97
2023-11-30T16:20:13.274Z,99632.34
2023-11-30T16:22:46.789Z,99628.25
2023-11-30T16:25:16.526Z,99630.50
2023-11-30T16:27:44.225Z,99624.94
2023-11-30T16:30:17.604Z,99610.19
2023-11-30T16:32:45.922Z,99618.19
2023-11-30T16:35:14.817Z,99615.34
2023-11-30T16:37:42.251Z,99598.59
2023-11-30T16:40:12.369Z,99610.91
2023-11-30T16:42:43.541Z,99610.06
2023-11-30T16:45:11.119Z,99613.88
2023-11-30T16:47:39.456Z,99622.50
2023-11-30T16:50:14.916Z,99614.09
2023-11-30T16:52:49.315Z,99625.84
2023-11-30T16:55:20.834Z,99634.97
2023-11-30T16:57:49.759Z,99635.28
2023-11-30T17:00:20.055Z,99641.28
2023-11-30T17:02:51.439Z,99649.59
2023-11-30T17:05:19.998Z,99648.13
2023-11-30T17:07:47.333Z,99647.94
2023-11-30T17:10:17.573Z,99652.06
2023-11-30T17:12:47.992Z,99647.13
2023-11-30T17:15:19.452Z,99641.53
2023-11-30T17:17:50.578Z,99637.94
2023-11-30T17:20:21.148Z,99638.91
2023-11-30T17:22:50.931Z,99643.56
2023-11-30T17:25:19.986Z,99645.63
2023-11-30T17:27:48.673Z,99640.81
2023-11-30T17:30:17.991Z,99635.00
2023-11-30T17:32:46.372Z,99639.44
2023-11-30T17:35:15.536Z,99631.06
2023-11-30T17:37:46.353Z,99646.97
2023-11-30T17:40:14.189Z,99640.59
2023-11-30T17:42:42.202Z,99634.41
2023-11-30T17:45:11.374Z,99632.66
2023-11-30T17:47:41.480Z,99629.06
2023-11-30T17:50:14.123Z,99631.06
2023-11-30T17:52:42.181Z,99635.13
2023-11-30T17:55:10.094Z,99624.91
2023-11-30T17:57:39.273Z,99621.34
2023-11-30T18:00:07.976Z,99618.25
2023-11-30T18:03:04.650Z,99622.56
2023-11-30T18:05:33.808Z,99631.09
2023-11-30T18:08:02.194Z,99633.84
2023-11-30T18:10:35.341Z,99623.69
2023-11-30T18:13:05.576Z,99613.97
2023-11-30T18:15:35.592Z,99612.41
2023-11-30T18:18:03.395Z,99604.59
2023-11-30T18:20:34.358Z,99598.72
2023-11-30T18:23:03.669Z,99600.16
2023-11-30T18:25:32.624Z,99595.97
2023-11-30T18:28:00.623Z,99593.91
2023-11-30T18:30:31.662Z,99594.50
2023-11-30T18:33:03.483Z,99588.38
2023-11-30T18:35:34.730Z,99595.63
2023-11-30T18:38:05.301Z,99598.00
2023-11-30T18:40:35.583Z,99593.56
2023-11-30T18:43:25.402Z,99593.72
2023-11-30T18:45:59.143Z,99578.25
2023-11-30T18:48:30.580Z,99572.56
2023-11-30T18:51:01.210Z,99570.84
2023-11-30T18:53:37.352Z,99574.69
2023-11-30T18:56:06.049Z,99564.34
2023-11-30T18:58:35.189Z,99569.06
2023-11-30T19:01:04.555Z,99569.81
2023-11-30T19:03:34.270Z,99564.28
2023-11-30T19:06:03.835Z,99560.72
2023-11-30T19:08:32.921Z,99561.78
2023-11-30T19:11:03.012Z,99553.81
2023-11-30T19:13:36.372Z,99537.44
2023-11-30T19:16:05.996Z,99541.56
2023-11-30T19:18:35.132Z,99540.50
2023-11-30T19:21:06.482Z,99532.59
2023-11-30T19:23:37.469Z,99528.75
2023-11-30T19:26:13.826Z,99537.38
2023-11-30T19:28:43.079Z,99531.06
2023-11-30T19:31:11.780Z,99535.47
2023-11-30T19:33:45.616Z,99543.63
2023-11-30T19:36:17.881Z,99534.50
2023-11-30T19:38:50.966Z,99547.88
2023-11-30T19:41:24.389Z,99533.41
2023-11-30T19:43:58.291Z,99545.94
2023-11-30T19:46:30.755Z,99546.38
2023-11-30T19:49:00.948Z,99540.78
2023-11-30T19:51:34.060Z,99538.66
2023-11-30T19:54:09.199Z,99544.84
2023-11-30T19:56:46.198Z,99535.59
2023-11-30T19:59:15.316Z,99541.78
2023-11-30T20:01:45.026Z,99548.59
2023-11-30T20:04:13.757Z,99530.44
2023-11-30T20:06:45.045Z,99547.66
2023-11-30T20:09:38.354Z,99557.59
2023-11-30T20:12:13.060Z,99541.00
2023-11-30T20:14:44.917Z,99551.66
2023-11-30T20:17:13.597Z,99553.44
2023-11-30T20:19:44.134Z,99554.25
2023-11-30T20:22:12.962Z,99540.81
2023-11-30T20:24:40.687Z,99533.84
2023-11-30T20:27:09.401Z,99534.91
2023-11-30T20:29:36.880Z,99532.06
2023-11-30T20:32:04.935Z,99527.13
2023-11-30T20:34:40.566Z,99523.28
2023-11-30T20:37:09.159Z,99517.59
2023-11-30T20:39:37.186Z,99519.41
2023-11-30T20:42:08.739Z,99528.78
2023-11-30T20:44:37.365Z,99537.09
2023-11-30T20:47:05.918Z,99539.78
2023-11-30T20:49:33.998Z,99537.69
2023-11-30T20:52:04.325Z,99536.41
2023-11-30T20:54:35.616Z,99530.19
2023-11-30T20:57:03.511Z,99514.31
2023-11-30T20:59:34.746Z,99518.25
2023-11-30T21:02:02.548Z,99517.19
2023-11-30T21:04:30.476Z,99515.19
2023-11-30T21:07:03.969Z,99510.28
2023-11-30T21:09:33.358Z,99512.84
2023-11-30T21:12:04.187Z,99497.81
2023-11-30T21:14:33.870Z,99497.81
2023-11-30T21:17:06.997Z,99501.16
2023-11-30T21:19:54.178Z,99487.72
2023-11-30T21:22:21.468Z,99484.56
2023-11-30T21:24:48.781Z,99490.56
2023-11-30T21:27:20.441Z,99486.16
2023-11-30T21:29:50.994Z,99491.56
2023-11-30T21:32:18.384Z,99491.84
2023-11-30T21:34:51.242Z,99506.63
2023-11-30T21:37:18.710Z,99504.03
2023-11-30T21:39:47.245Z,99498.34
2023-11-30T21:42:15.724Z,99489.53
2023-11-30T21:44:47.108Z,99493.38
2023-11-30T21:47:14.418Z,99480.44
2023-11-30T21:49:49.366Z,99476.84
2023-11-30T21:52:20.936Z,99482.28
2023-11-30T21:54:48.943Z,99486.94
2023-11-30T21:57:19.034Z,99493.16
2023-11-30T21:59:46.367Z,99498.88
2023-11-30T22:02:13.653Z,99504.06
2023-11-30T22:04:41.880Z,99495.50
2023-11-30T22:07:09.448Z,99486.19
2023-11-30T22:09:39.113Z,99489.81
2023-11-30T22:12:08.145Z,99484.59
2023-11-30T22:14:38.107Z,99473.47
2023-11-30T22:17:05.833Z,99478.66
2023-11-30T22:19:33.474Z,99483.81
2023-11-30T22:22:01.692Z,99488.22
2023-11-30T22:24:29.794Z,99490.59
2023-11-30T22:26:57.507Z,99497.84
2023-11-30T22:29:24.710Z,99495.25
2023-11-30T22:31:54.307Z,99484.34
2023-11-30T22:34:21.745Z,99475.81
2023-11-30T22:36:49.401Z,99479.69
2023-11-30T22:39:18.070Z,99478.41
2023-11-30T22:41:46.454Z,99467.00
2023-11-30T22:44:18.577Z,99465.94
2023-11-30T22:46:47.062Z,99464.13
2023-11-30T22:49:17.733Z,99457.91
2023-11-30T22:51:54.195Z,99469.31
2023-11-30T22:54:23.916Z,99469.31
2023-11-30T22:56:57.972Z,99459.22
2023-11-30T22:59:25.370Z,99463.09
2023-11-30T23:01:55.167Z,99457.41
2023-11-30T23:04:26.722Z,99458.16
2023-11-30T23:06:54.573Z,99448.06
2023-11-30T23:09:21.959Z,99454.28
2023-11-30T23:11:49.226Z,99460.75
2023-11-30T23:14:16.623Z,99453.22
2023-11-30T23:16:44.759Z,99446.53
2023-11-30T23:19:12.313Z,99444.16
2023-11-30T23:21:40.702Z,99444.94
2023-11-30T23:24:08.914Z,99446.75
2023-11-30T23:26:37.641Z,99448.06
2023-11-30T23:29:05.491Z,99451.19
2023-11-30T23:31:34.438Z,99437.44
2023-11-30T23:34:04.653Z,99444.69
2023-11-30T23:36:32.322Z,99451.41
2023-11-30T23:39:04.078Z,99448.31
2023-11-30T23:41:32.803Z,99449.84
2023-11-30T23:44:00.778Z,99460.50
2023-11-30T23:46:30.425Z,99454.28
2023-11-30T23:48:59.145Z,99445.47
2023-11-30T23:51:26.462Z,99456.06
2023-11-30T23:53:53.704Z,99451.94
2023-11-30T23:56:20.845Z,99449.88
2023-11-30T23:58:48.080Z,99447.53
